createdAt,value
2019-03-12T00:01:27.130Z,100796.54
2019-03-12T00:04:18.930Z,100796.54
2019-03-12T00:06:51.080Z,100822.08
2019-03-12T00:09:23.804Z,100829.42
2019-03-12T00:11:56.048Z,100834.48
2019-03-12T00:14:28.349Z,100837.42
2019-03-12T00:17:00.907Z,100842.34
2019-03-12T00:19:32.865Z,100843.41
2019-03-12T00:22:04.891Z,100853.46
2019-03-12T00:24:37.333Z,100855.56
2019-03-12T00:27:09.843Z,100857.11
2019-03-12T00:29:42.478Z,100865.30
2019-03-12T00:32:14.886Z,100865.06
2019-03-12T00:34:47.061Z,100873.70
2019-03-12T00:37:19.342Z,100875.96
2019-03-12T00:39:51.907Z,100881.48
2019-03-12T00:42:24.335Z,100894.47
2019-03-12T00:44:56.953Z,100903.38
2019-03-12T00:47:29.107Z,100904.02
2019-03-12T00:50:01.598Z,100913.38
2019-03-12T00:52:33.890Z,100915.48
2019-03-12T00:55:07.415Z,100915.48
2019-03-12T00:57:40.029Z,100918.55
2019-03-12T01:00:16.491Z,100932.42
2019-03-12T01:02:48.932Z,100937.40
2019-03-12T01:05:21.401Z,100940.42
2019-03-12T01:07:53.870Z,100943.84
2019-03-12T01:10:26.101Z,100940.11
2019-03-12T01:12:59.116Z,100939.18
2019-03-12T01:15:31.871Z,100943.77
2019-03-12T01:18:04.093Z,100940.88
2019-03-12T01:20:36.385Z,100941.13
2019-03-12T01:23:08.851Z,100945.11
2019-03-12T01:25:40.880Z,100943.47
2019-03-12T01:28:13.009Z,100946.05
2019-03-12T01:30:45.336Z,100948.87
2019-03-12T01:33:17.885Z,100953.98
2019-03-12T01:35:49.875Z,100956.70
2019-03-12T01:38:22.097Z,100960.96
2019-03-12T01:40:54.928Z,100964.66
2019-03-12T01:43:27.106Z,100963.28
2019-03-12T01:46:00.090Z,100965.06
2019-03-12T01:48:32.308Z,100967.94
2019-03-12T01:51:04.906Z,100963.22
2019-03-12T01:53:37.700Z,100971.25
2019-03-12T01:56:09.881Z,100969.41
2019-03-12T01:58:41.984Z,100974.47
2019-03-12T02:01:14.448Z,100981.67
2019-03-12T02:03:46.854Z,100984.64
2019-03-12T02:06:18.902Z,100983.94
2019-03-12T02:08:50.888Z,100983.42
2019-03-12T02:11:22.860Z,100986.34
2019-03-12T02:13:54.918Z,100993.45
2019-03-12T02:16:27.364Z,101001.66
2019-03-12T02:18:59.888Z,100994.22
2019-03-12T02:21:31.914Z,100996.98
2019-03-12T02:24:04.053Z,100996.98
2019-03-12T02:26:36.339Z,100996.92
2019-03-12T02:29:08.882Z,100995.01
2019-03-12T02:31:40.931Z,100993.00
2019-03-12T02:34:12.955Z,100993.14
2019-03-12T02:36:45.353Z,100987.52
2019-03-12T02:39:18.379Z,100996.16
2019-03-12T02:41:51.135Z,101000.80
2019-03-12T02:44:24.343Z,101003.20
2019-03-12T02:46:56.861Z,101004.19
2019-03-12T02:49:29.337Z,100999.16
2019-03-12T02:52:02.000Z,100986.91
2019-03-12T02:54:34.334Z,100983.20
2019-03-12T02:57:06.909Z,100997.07
2019-03-12T02:59:38.960Z,100992.95
2019-03-12T03:02:10.860Z,101000.41
2019-03-12T03:04:43.348Z,100997.13
2019-03-12T03:07:37.523Z,100995.29
2019-03-12T03:10:12.800Z,101001.96
2019-03-12T03:12:44.290Z,101000.75
2019-03-12T03:15:21.338Z,101002.27
2019-03-12T03:17:54.083Z,100994.61
2019-03-12T03:20:26.885Z,100990.29
2019-03-12T03:23:00.359Z,100996.25
2019-03-12T03:27:28.948Z,100993.73
2019-03-12T03:29:59.755Z,100993.73
2019-03-12T03:32:30.511Z,101003.55
2019-03-12T03:35:02.776Z,101002.05
2019-03-12T03:37:33.513Z,101005.21
2019-03-12T03:40:05.822Z,101008.88
2019-03-12T03:42:37.800Z,101004.81
2019-03-12T03:45:09.760Z,101012.44
2019-03-12T03:47:40.719Z,101012.81
2019-03-12T03:50:11.545Z,101017.02
2019-03-12T03:52:43.575Z,101010.30
2019-03-12T03:55:17.617Z,101012.41
2019-03-12T03:57:49.384Z,101014.95
2019-03-12T04:00:22.847Z,101014.95
2019-03-12T04:02:54.750Z,101013.34
2019-03-12T04:05:25.504Z,101018.83
2019-03-12T04:07:57.317Z,101018.52
2019-03-12T04:10:28.887Z,101017.42
2019-03-12T04:13:00.787Z,101011.79
2019-03-12T04:15:32.725Z,101017.53
2019-03-12T04:18:03.504Z,101012.21
2019-03-12T04:20:35.416Z,101006.92
2019-03-12T04:23:07.300Z,101006.78
2019-03-12T04:25:38.834Z,101008.08
2019-03-12T04:28:10.447Z,101010.23
2019-03-12T04:30:42.354Z,101013.91
2019-03-12T04:34:20.280Z,101023.77
2019-03-12T04:36:53.450Z,101020.37
2019-03-12T04:39:25.062Z,101024.95
2019-03-12T04:41:56.781Z,101021.39
2019-03-12T04:44:27.503Z,101029.66
2019-03-12T04:46:59.310Z,101036.62
2019-03-12T04:49:30.832Z,101043.40
2019-03-12T04:52:02.506Z,101038.95
2019-03-12T04:54:34.309Z,101038.69
2019-03-12T04:57:06.035Z,101043.33
2019-03-12T04:59:38.306Z,101037.88
2019-03-12T05:02:10.032Z,101041.98
2019-03-12T05:04:42.277Z,101040.72
2019-03-12T05:07:13.809Z,101040.17
2019-03-12T05:09:45.778Z,101037.13
2019-03-12T05:12:16.516Z,101036.95
2019-03-12T05:14:48.783Z,101040.17
2019-03-12T05:17:22.630Z,101046.65
2019-03-12T05:19:54.357Z,101039.73
2019-03-12T05:22:27.761Z,101039.73
2019-03-12T05:24:58.645Z,101045.84
2019-03-12T05:27:30.370Z,101040.04
2019-03-12T05:30:02.335Z,101040.04
2019-03-12T05:32:34.310Z,101038.62
2019-03-12T05:35:06.540Z,101042.58
2019-03-12T05:37:38.304Z,101035.80
2019-03-12T05:40:10.792Z,101040.78
2019-03-12T05:42:41.483Z,101032.58
2019-03-12T05:45:13.696Z,101038.47
2019-03-12T05:47:45.397Z,101041.65
2019-03-12T05:50:17.298Z,101042.33
2019-03-12T05:52:49.601Z,101036.16
2019-03-12T05:55:21.622Z,101031.95
2019-03-12T05:57:53.621Z,101030.02
2019-03-12T06:00:27.277Z,101027.44
2019-03-12T06:02:59.754Z,101027.44
2019-03-12T06:05:30.496Z,101028.08
2019-03-12T06:08:02.310Z,101033.25
2019-03-12T06:10:34.061Z,101033.08
2019-03-12T06:13:05.747Z,101043.00
2019-03-12T06:15:37.745Z,101054.25
2019-03-12T06:18:08.480Z,101048.29
2019-03-12T06:20:40.304Z,101040.87
2019-03-12T06:23:15.059Z,101041.02
2019-03-12T06:25:45.415Z,101033.75
2019-03-12T06:28:17.630Z,101033.75
2019-03-12T06:31:06.317Z,101035.03
2019-03-12T06:33:59.544Z,101035.03
2019-03-12T06:36:49.823Z,101033.70
2019-03-12T06:39:42.985Z,101029.58
2019-03-12T06:42:17.882Z,101033.26
2019-03-12T06:45:08.315Z,101031.77
2019-03-12T06:47:54.911Z,101030.41
2019-03-12T06:51:00.599Z,101028.88
2019-03-12T06:54:00.319Z,101013.61
2019-03-12T06:56:51.062Z,101013.61
2019-03-12T06:59:53.545Z,101014.52
2019-03-12T07:02:33.301Z,101007.22
2019-03-12T07:05:25.749Z,101003.66
2019-03-12T07:08:06.942Z,101007.94
2019-03-12T07:11:12.777Z,101005.22
2019-03-12T07:13:50.007Z,101007.62
2019-03-12T07:16:46.306Z,101009.00
2019-03-12T07:19:28.862Z,101008.34
2019-03-12T07:22:28.506Z,101012.42
2019-03-12T07:25:18.814Z,101007.36
2019-03-12T07:28:02.580Z,101006.67
2019-03-12T07:30:56.446Z,100984.88
2019-03-12T07:33:49.058Z,100984.88
2019-03-12T07:36:42.301Z,101002.41
2019-03-12T07:39:31.465Z,101002.73
2019-03-12T07:42:21.826Z,101014.61
2019-03-12T07:45:24.402Z,101009.66
2019-03-12T07:48:23.792Z,101008.14
2019-03-12T07:51:21.782Z,101004.09
2019-03-12T07:54:04.054Z,101005.88
2019-03-12T07:56:50.398Z,101005.32
2019-03-12T07:59:50.298Z,101000.34
2019-03-12T08:02:51.709Z,101002.41
2019-03-12T08:05:35.625Z,101004.33
2019-03-12T08:08:13.298Z,101006.84
2019-03-12T08:10:50.303Z,101006.84
2019-03-12T08:13:44.297Z,100998.19
2019-03-12T08:16:47.035Z,100998.84
2019-03-12T08:19:27.458Z,101000.91
2019-03-12T08:22:16.762Z,101002.66
2019-03-12T08:25:10.640Z,100993.06
2019-03-12T08:28:13.465Z,100987.30
2019-03-12T08:31:03.724Z,100987.30
2019-03-12T08:33:51.007Z,100990.81
2019-03-12T08:36:27.742Z,100985.19
2019-03-12T08:39:07.670Z,100981.63
2019-03-12T08:41:47.786Z,100969.92
2019-03-12T08:44:37.500Z,100969.92
2019-03-12T08:47:26.247Z,100970.48
2019-03-12T08:50:19.258Z,100976.95
2019-03-12T08:53:12.599Z,100973.86
2019-03-12T08:56:21.306Z,100962.72
2019-03-12T08:59:13.308Z,100962.72
2019-03-12T09:02:06.413Z,100960.92
2019-03-12T09:04:52.757Z,100955.48
2019-03-12T09:07:54.911Z,100957.69
2019-03-12T09:11:08.381Z,100954.83
2019-03-12T09:13:45.740Z,100945.14
2019-03-12T09:16:38.295Z,100947.48
2019-03-12T09:19:17.780Z,100935.44
2019-03-12T09:22:00.312Z,100927.14
2019-03-12T09:24:52.302Z,100933.94
2019-03-12T09:27:49.304Z,100929.57
2019-03-12T09:30:48.994Z,100925.86
2019-03-12T09:33:38.429Z,100915.69
2019-03-12T09:36:22.308Z,100914.14
2019-03-12T09:39:31.408Z,100902.94
2019-03-12T09:42:24.594Z,100902.45
2019-03-12T09:45:06.354Z,100878.63
2019-03-12T09:47:57.035Z,100878.63
2019-03-12T09:50:33.853Z,100883.25
2019-03-12T09:53:27.384Z,100878.30
2019-03-12T09:56:07.778Z,100868.97
2019-03-12T09:58:48.797Z,100870.11
2019-03-12T10:01:39.142Z,100868.09
2019-03-12T10:04:23.387Z,100861.45
2019-03-12T10:07:16.533Z,100860.09
2019-03-12T10:09:56.369Z,100865.85
2019-03-12T10:13:02.458Z,100864.86
2019-03-12T10:16:02.306Z,100864.02
2019-03-12T10:18:58.513Z,100861.99
2019-03-12T10:21:51.679Z,100855.20
2019-03-12T10:24:54.309Z,100852.14
2019-03-12T10:27:38.923Z,100852.14
2019-03-12T10:30:24.819Z,100840.43
2019-03-12T10:33:12.062Z,100832.09
2019-03-12T10:35:59.842Z,100826.15
2019-03-12T10:40:17.067Z,100829.38
2019-03-12T10:43:20.854Z,100828.34
2019-03-12T10:46:16.330Z,100822.20
2019-03-12T10:48:48.077Z,100811.02
2019-03-12T10:51:19.773Z,100796.73
2019-03-12T10:53:50.492Z,100788.23
2019-03-12T10:56:22.317Z,100778.20
2019-03-12T10:58:53.846Z,100782.44
2019-03-12T11:01:25.516Z,100781.59
2019-03-12T11:03:57.273Z,100784.64
2019-03-12T11:06:28.901Z,100773.05
2019-03-12T11:09:00.725Z,100767.95
2019-03-12T11:11:31.632Z,100763.52
2019-03-12T11:14:03.340Z,100751.27
2019-03-12T11:16:35.314Z,100751.27
2019-03-12T11:19:07.785Z,100752.14
2019-03-12T11:21:38.644Z,100755.52
2019-03-12T11:24:10.785Z,100726.44
2019-03-12T11:26:41.735Z,100726.44
2019-03-12T11:29:12.639Z,100735.31
2019-03-12T11:31:44.335Z,100716.42
2019-03-12T11:34:16.262Z,100716.42
2019-03-12T11:36:47.863Z,100715.09
2019-03-12T11:39:19.780Z,100712.55
2019-03-12T11:41:53.230Z,100703.23
2019-03-12T11:44:26.085Z,100709.19
2019-03-12T11:46:58.859Z,100708.33
2019-03-12T11:49:31.046Z,100697.46
2019-03-12T11:52:03.939Z,100696.09
2019-03-12T11:54:36.297Z,100695.41
2019-03-12T11:57:08.884Z,100689.30
2019-03-12T11:59:41.343Z,100681.36
2019-03-12T12:02:13.895Z,100672.70
2019-03-12T12:04:45.960Z,100656.72
2019-03-12T12:07:18.118Z,100651.63
2019-03-12T12:09:51.146Z,100644.52
2019-03-12T12:12:23.999Z,100640.12
2019-03-12T12:14:56.852Z,100618.72
2019-03-12T12:17:29.104Z,100614.64
2019-03-12T12:20:01.917Z,100602.41
2019-03-12T12:22:34.390Z,100597.48
2019-03-12T12:25:07.006Z,100588.81
2019-03-12T12:27:39.618Z,100586.09
2019-03-12T12:30:16.080Z,100585.42
2019-03-12T12:32:48.700Z,100585.42
2019-03-12T12:35:39.722Z,100575.92
2019-03-12T12:38:10.464Z,100566.09
2019-03-12T12:40:42.382Z,100560.63
2019-03-12T12:43:14.027Z,100557.25
2019-03-12T12:45:45.774Z,100540.61
2019-03-12T12:48:16.493Z,100536.88
2019-03-12T12:51:01.940Z,100527.86
2019-03-12T12:53:22.027Z,100527.70
2019-03-12T12:55:53.846Z,100520.40
2019-03-12T12:58:25.749Z,100516.69
2019-03-12T13:00:56.682Z,100507.32
2019-03-12T13:03:27.444Z,100510.40
2019-03-12T13:05:59.366Z,100496.45
2019-03-12T13:08:31.087Z,100493.57
2019-03-12T13:11:02.745Z,100492.92
2019-03-12T13:13:33.457Z,100484.94
2019-03-12T13:16:05.318Z,100479.83
2019-03-12T13:18:37.819Z,100476.61
2019-03-12T13:21:09.773Z,100470.66
2019-03-12T13:23:40.661Z,100469.62
2019-03-12T13:26:11.937Z,100460.16
2019-03-12T13:28:44.950Z,100448.10
2019-03-12T13:31:17.060Z,100443.70
2019-03-12T13:33:48.791Z,100433.83
2019-03-12T13:36:20.741Z,100438.58
2019-03-12T13:38:51.569Z,100427.52
2019-03-12T13:41:23.819Z,100406.50
2019-03-12T13:43:55.754Z,100406.50
2019-03-12T13:46:26.517Z,100406.83
2019-03-12T13:48:58.316Z,100408.50
2019-03-12T13:51:30.089Z,100402.43
2019-03-12T13:54:01.819Z,100399.20
2019-03-12T13:56:34.074Z,100400.88
2019-03-12T13:59:05.776Z,100391.17
2019-03-12T14:01:36.613Z,100378.92
2019-03-12T14:04:10.842Z,100379.23
2019-03-12T14:06:42.367Z,100379.23
2019-03-12T14:09:14.110Z,100372.60
2019-03-12T14:11:46.371Z,100365.97
2019-03-12T14:14:18.321Z,100365.97
2019-03-12T14:16:50.264Z,100357.29
2019-03-12T14:19:22.319Z,100352.70
2019-03-12T14:21:54.368Z,100351.53
2019-03-12T14:24:50.814Z,100332.47
2019-03-12T14:27:22.755Z,100332.47
2019-03-12T14:31:19.376Z,100322.78
2019-03-12T14:33:51.327Z,100322.78
2019-03-12T14:36:23.312Z,100312.59
2019-03-12T14:38:55.031Z,100309.88
2019-03-12T14:41:26.775Z,100300.32
2019-03-12T14:43:57.478Z,100302.05
2019-03-12T14:46:29.319Z,100292.00
2019-03-12T14:49:05.305Z,100290.48
2019-03-12T14:52:37.588Z,100288.45
2019-03-12T14:55:09.781Z,100255.83
2019-03-12T14:57:40.712Z,100255.83
2019-03-12T15:00:20.457Z,100255.60
2019-03-12T15:02:52.302Z,100249.48
2019-03-12T15:05:24.013Z,100252.00
2019-03-12T15:07:55.774Z,100240.16
2019-03-12T15:10:27.838Z,100231.34
2019-03-12T15:12:59.834Z,100220.02
2019-03-12T15:15:31.739Z,100214.72
2019-03-12T15:18:03.744Z,100208.36
2019-03-12T15:20:34.494Z,100198.34
2019-03-12T15:23:06.347Z,100206.87
2019-03-12T15:25:38.707Z,100204.70
2019-03-12T15:28:10.458Z,100195.77
2019-03-12T15:30:42.790Z,100200.14
2019-03-12T15:33:13.477Z,100199.12
2019-03-12T15:35:45.310Z,100181.09
2019-03-12T15:38:17.057Z,100180.82
2019-03-12T15:40:48.790Z,100168.39
2019-03-12T15:43:20.482Z,100162.09
2019-03-12T15:45:52.698Z,100158.06
2019-03-12T15:48:23.482Z,100147.96
2019-03-12T15:50:55.378Z,100146.52
2019-03-12T15:53:28.037Z,100136.86
2019-03-12T15:55:59.801Z,100125.47
2019-03-12T15:58:32.054Z,100114.34
2019-03-12T16:01:03.835Z,100105.73
2019-03-12T16:03:35.737Z,100102.17
2019-03-12T16:06:06.561Z,100083.14
2019-03-12T16:08:38.686Z,100053.05
2019-03-12T16:11:09.515Z,100053.05
2019-03-12T16:13:41.366Z,100058.37
2019-03-12T16:16:13.351Z,100057.58
2019-03-12T16:18:45.545Z,100055.09
2019-03-12T16:21:17.841Z,100032.25
2019-03-12T16:24:22.414Z,100011.06
2019-03-12T16:26:54.306Z,100011.06
2019-03-12T16:29:26.060Z,100016.16
2019-03-12T16:31:57.841Z,100017.61
2019-03-12T16:34:29.390Z,100005.41
2019-03-12T16:37:01.312Z,99997.94
2019-03-12T16:39:36.299Z,100002.81
2019-03-12T16:42:08.590Z,99994.33
2019-03-12T16:44:40.373Z,99969.48
2019-03-12T16:47:12.617Z,99969.48
2019-03-12T16:49:44.613Z,99955.20
2019-03-12T16:52:16.873Z,99951.65
2019-03-12T16:54:51.378Z,99951.65
2019-03-12T16:57:22.453Z,99948.36
2019-03-12T17:02:11.018Z,99935.58
2019-03-12T17:04:42.803Z,99929.47
2019-03-12T17:07:14.794Z,99923.77
2019-03-12T17:09:46.649Z,99913.54
2019-03-12T17:12:17.463Z,99911.52
2019-03-12T17:14:49.332Z,99901.47
2019-03-12T17:17:21.630Z,99898.58
2019-03-12T17:19:53.301Z,99877.02
2019-03-12T17:22:25.387Z,99877.02
2019-03-12T17:24:57.303Z,99886.84
2019-03-12T17:27:29.054Z,99876.42
2019-03-12T17:30:00.842Z,99870.92
2019-03-12T17:32:32.778Z,99868.20
2019-03-12T17:35:03.683Z,99865.63
2019-03-12T17:37:34.664Z,99865.13
2019-03-12T17:40:09.310Z,99854.20
2019-03-12T17:42:41.352Z,99853.61
2019-03-12T17:45:14.345Z,99834.86
2019-03-12T17:47:46.834Z,99837.27
2019-03-12T17:50:18.776Z,99832.78
2019-03-12T17:52:50.783Z,99820.00
2019-03-12T17:55:22.753Z,99817.98
2019-03-12T17:57:54.758Z,99804.34
2019-03-12T18:00:28.552Z,99797.41
2019-03-12T18:03:06.793Z,99791.32
2019-03-12T18:05:38.747Z,99788.78
2019-03-12T18:08:09.737Z,99776.53
2019-03-12T18:10:40.644Z,99774.30
2019-03-12T18:13:13.038Z,99753.64
2019-03-12T18:15:45.321Z,99753.64
2019-03-12T18:18:17.315Z,99743.87
2019-03-12T18:20:50.897Z,99744.24
2019-03-12T18:23:23.297Z,99726.70
2019-03-12T18:25:55.285Z,99727.23
2019-03-12T18:28:27.306Z,99718.95
2019-03-12T18:30:59.300Z,99707.41
2019-03-12T18:33:31.300Z,99690.70
2019-03-12T18:36:03.550Z,99688.36
2019-03-12T18:38:35.379Z,99691.89
2019-03-12T18:41:07.487Z,99682.42
2019-03-12T18:43:39.322Z,99653.89
2019-03-12T18:46:11.933Z,99653.89
2019-03-12T18:48:44.819Z,99655.50
2019-03-12T18:51:17.063Z,99648.39
2019-03-12T18:53:48.805Z,99640.89
2019-03-12T18:56:20.966Z,99635.63
2019-03-12T18:58:52.783Z,99631.06
2019-03-12T19:01:24.736Z,99621.86
2019-03-12T19:03:55.680Z,99612.61
2019-03-12T19:06:34.611Z,99607.41
2019-03-12T19:09:15.754Z,99595.72
2019-03-12T19:11:48.764Z,99595.72
2019-03-12T19:14:21.423Z,99580.92
2019-03-12T19:16:53.346Z,99568.26
2019-03-12T19:19:25.365Z,99561.41
2019-03-12T19:22:01.302Z,99556.16
2019-03-12T19:24:33.052Z,99546.85
2019-03-12T19:27:05.284Z,99538.91
2019-03-12T19:29:37.265Z,99531.88
2019-03-12T19:32:30.385Z,99520.98
2019-03-12T19:35:02.325Z,99522.13
2019-03-12T19:37:33.901Z,99511.23
2019-03-12T19:40:05.785Z,99521.41
2019-03-12T19:42:37.839Z,99493.34
2019-03-12T19:45:10.827Z,99497.96
2019-03-12T19:47:43.299Z,99489.98
2019-03-12T19:50:17.386Z,99482.54
2019-03-12T19:52:49.455Z,99472.81
2019-03-12T19:55:26.250Z,99473.65
2019-03-12T19:57:57.858Z,99466.73
2019-03-12T20:00:29.757Z,99463.70
2019-03-12T20:03:10.070Z,99463.70
2019-03-12T20:05:34.331Z,99448.73
2019-03-12T20:08:06.372Z,99449.76
2019-03-12T20:11:49.301Z,99435.81
2019-03-12T20:15:38.810Z,99424.82
2019-03-12T20:19:07.304Z,99410.25
2019-03-12T20:23:19.062Z,99395.28
2019-03-12T20:27:21.269Z,99388.98
2019-03-12T20:31:43.471Z,99360.58
2019-03-12T20:35:35.792Z,99365.77
2019-03-12T20:39:43.343Z,99338.34
2019-03-12T20:43:39.056Z,99330.19
2019-03-12T20:47:26.771Z,99321.17
2019-03-12T20:51:33.751Z,99318.22
2019-03-12T20:55:55.386Z,99314.26
2019-03-12T21:00:08.299Z,99304.62
2019-03-12T21:04:16.111Z,99306.10
2019-03-12T21:08:14.595Z,99292.28
2019-03-12T21:12:10.310Z,99275.45
2019-03-12T21:16:32.541Z,99275.45
2019-03-12T21:20:30.377Z,99278.16
2019-03-12T21:24:14.777Z,99280.12
2019-03-12T21:27:43.265Z,99270.01
2019-03-12T21:30:12.303Z,99257.14
2019-03-12T21:32:44.308Z,99239.70
2019-03-12T21:35:16.749Z,99235.92
2019-03-12T21:37:47.555Z,99228.93
2019-03-12T21:40:19.395Z,99196.41
2019-03-12T21:42:51.764Z,99196.41
2019-03-12T21:45:22.962Z,99198.50
2019-03-12T21:47:54.732Z,99188.16
2019-03-12T21:50:25.460Z,99188.25
2019-03-12T21:52:57.282Z,99179.89
2019-03-12T21:55:28.845Z,99178.31
2019-03-12T21:58:00.429Z,99173.70
2019-03-12T22:00:32.350Z,99161.47
2019-03-12T22:03:04.303Z,99158.98
2019-03-12T22:05:36.168Z,99151.02
2019-03-12T22:08:08.014Z,99141.51
2019-03-12T22:10:40.062Z,99125.63
2019-03-12T22:13:11.835Z,99125.09
2019-03-12T22:15:43.566Z,99125.42
2019-03-12T22:18:15.798Z,99080.56
2019-03-12T22:20:51.240Z,99080.56
2019-03-12T22:23:25.300Z,99094.28
2019-03-12T22:25:57.304Z,99082.77
2019-03-12T22:28:29.770Z,99090.09
2019-03-12T22:31:00.639Z,99083.50
2019-03-12T22:33:32.802Z,99087.58
2019-03-12T22:36:04.626Z,99087.58
2019-03-12T22:38:36.579Z,99073.14
2019-03-12T22:41:08.802Z,99067.10
2019-03-12T22:43:40.792Z,99067.10
2019-03-12T22:46:12.812Z,99087.27
2019-03-12T22:48:44.849Z,99067.91
2019-03-12T22:51:16.633Z,99061.45
2019-03-12T22:53:48.420Z,99050.88
2019-03-12T22:56:20.307Z,99050.88
2019-03-12T22:58:52.014Z,99053.30
2019-03-12T23:01:23.947Z,99043.69
2019-03-12T23:03:56.365Z,99037.72
2019-03-12T23:06:28.980Z,99034.17
2019-03-12T23:09:01.315Z,99026.22
2019-03-12T23:11:33.301Z,99020.15
2019-03-12T23:16:33.801Z,99012.96
2019-03-12T23:19:06.322Z,99012.44
2019-03-12T23:21:37.815Z,99018.59
2019-03-12T23:24:09.861Z,99010.97
2019-03-12T23:26:41.799Z,99013.69
2019-03-12T23:29:13.438Z,99020.15
2019-03-12T23:31:45.308Z,99031.02
2019-03-12T23:34:16.905Z,99030.61
2019-03-12T23:36:48.716Z,99032.17
2019-03-12T23:39:19.607Z,99022.66
2019-03-12T23:41:51.772Z,99033.42
2019-03-12T23:44:22.541Z,99033.42
2019-03-12T23:46:54.325Z,99035.21
2019-03-12T23:49:26.329Z,99035.21
2019-03-12T23:51:57.865Z,99022.88
2019-03-12T23:54:29.910Z,99020.39
2019-03-12T23:57:01.772Z,99018.50
2019-03-12T23:59:32.450Z,99009.19
